sensor_id;sensor_type;location;lat;lon;timestamp;P1;durP1;ratioP1;P2;durP2;ratioP2
66384;SDS011;53426;55.872;37.462;2022-12-07T00:00:38;3.72;;;3.05;;
66384;SDS011;53426;55.872;37.462;2022-12-07T00:03:04;3.40;;;2.50;;
66384;SDS011;53426;55.872;37.462;2022-12-07T00:05:29;3.78;;;2.90;;
66384;SDS011;53426;55.872;37.462;2022-12-07T00:07:55;1.90;;;1.73;;
66384;SDS011;53426;55.872;37.462;2022-12-07T00:14:21;3.83;;;2.38;;
66384;SDS011;53426;55.872;37.462;2022-12-07T00:16:48;3.38;;;2.50;;
66384;SDS011;53426;55.872;37.462;2022-12-07T00:19:15;3.88;;;2.67;;
66384;SDS011;53426;55.872;37.462;2022-12-07T00:21:42;3.08;;;2.58;;
66384;SDS011;53426;55.872;37.462;2022-12-07T00:24:09;6.95;;;2.75;;
66384;SDS011;53426;55.872;37.462;2022-12-07T00:26:37;7.32;;;2.58;;
66384;SDS011;53426;55.872;37.462;2022-12-07T00:29:26;2.65;;;2.22;;
66384;SDS011;53426;55.872;37.462;2022-12-07T00:31:51;3.20;;;2.40;;
66384;SDS011;53426;55.872;37.462;2022-12-07T00:34:18;2.10;;;1.75;;
66384;SDS011;53426;55.872;37.462;2022-12-07T00:36:45;5.20;;;3.00;;
66384;SDS011;53426;55.872;37.462;2022-12-07T00:39:11;7.65;;;2.70;;
66384;SDS011;53426;55.872;37.462;2022-12-07T00:41:37;5.05;;;2.08;;
66384;SDS011;53426;55.872;37.462;2022-12-07T00:44:03;2.10;;;1.92;;
66384;SDS011;53426;55.872;37.462;2022-12-07T00:46:30;2.63;;;2.08;;
66384;SDS011;53426;55.872;37.462;2022-12-07T00:48:57;2.55;;;2.35;;
66384;SDS011;53426;55.872;37.462;2022-12-07T00:51:23;2.75;;;2.05;;
66384;SDS011;53426;55.872;37.462;2022-12-07T00:53:51;4.82;;;3.28;;
66384;SDS011;53426;55.872;37.462;2022-12-07T00:56:24;3.65;;;2.40;;
66384;SDS011;53426;55.872;37.462;2022-12-07T00:59:02;4.90;;;2.88;;
66384;SDS011;53426;55.872;37.462;2022-12-07T01:01:30;2.10;;;1.95;;
66384;SDS011;53426;55.872;37.462;2022-12-07T01:03:57;4.20;;;3.15;;
66384;SDS011;53426;55.872;37.462;2022-12-07T01:06:24;3.78;;;3.17;;
66384;SDS011;53426;55.872;37.462;2022-12-07T01:08:51;6.90;;;3.20;;
66384;SDS011;53426;55.872;37.462;2022-12-07T01:11:17;9.57;;;3.97;;
66384;SDS011;53426;55.872;37.462;2022-12-07T01:13:46;4.43;;;2.70;;
66384;SDS011;53426;55.872;37.462;2022-12-07T01:16:13;2.88;;;2.55;;
66384;SDS011;53426;55.872;37.462;2022-12-07T01:18:41;7.93;;;3.30;;
66384;SDS011;53426;55.872;37.462;2022-12-07T01:21:11;3.67;;;3.13;;
66384;SDS011;53426;55.872;37.462;2022-12-07T01:23:41;1.95;;;1.85;;
66384;SDS011;53426;55.872;37.462;2022-12-07T01:26:09;2.63;;;2.05;;
66384;SDS011;53426;55.872;37.462;2022-12-07T01:28:37;3.80;;;3.30;;
66384;SDS011;53426;55.872;37.462;2022-12-07T01:31:04;2.67;;;2.25;;
66384;SDS011;53426;55.872;37.462;2022-12-07T01:33:33;7.22;;;3.03;;
66384;SDS011;53426;55.872;37.462;2022-12-07T01:36:04;3.28;;;2.45;;
66384;SDS011;53426;55.872;37.462;2022-12-07T01:38:33;3.47;;;3.17;;
66384;SDS011;53426;55.872;37.462;2022-12-07T01:41:02;3.38;;;2.30;;
66384;SDS011;53426;55.872;37.462;2022-12-07T01:43:29;3.03;;;2.03;;
66384;SDS011;53426;55.872;37.462;2022-12-07T01:45:56;9.30;;;1.75;;
66384;SDS011;53426;55.872;37.462;2022-12-07T01:48:31;1.95;;;1.85;;
66384;SDS011;53426;55.872;37.462;2022-12-07T01:51:10;1.58;;;1.48;;
66384;SDS011;53426;55.872;37.462;2022-12-07T01:53:41;6.97;;;2.50;;
66384;SDS011;53426;55.872;37.462;2022-12-07T01:56:11;3.75;;;2.58;;
66384;SDS011;53426;55.872;37.462;2022-12-07T01:58:44;3.70;;;2.72;;
66384;SDS011;53426;55.872;37.462;2022-12-07T02:01:10;3.85;;;2.72;;
66384;SDS011;53426;55.872;37.462;2022-12-07T02:03:38;3.30;;;2.60;;
66384;SDS011;53426;55.872;37.462;2022-12-07T02:06:07;2.45;;;2.25;;
66384;SDS011;53426;55.872;37.462;2022-12-07T02:08:34;13.90;;;3.15;;
66384;SDS011;53426;55.872;37.462;2022-12-07T02:11:01;3.03;;;2.20;;
66384;SDS011;53426;55.872;37.462;2022-12-07T02:13:30;5.50;;;2.22;;
66384;SDS011;53426;55.872;37.462;2022-12-07T02:16:14;2.97;;;2.55;;
66384;SDS011;53426;55.872;37.462;2022-12-07T02:27:08;3.15;;;2.30;;
66384;SDS011;53426;55.872;37.462;2022-12-07T02:29:47;4.32;;;3.15;;
66384;SDS011;53426;55.872;37.462;2022-12-07T02:34:52;5.03;;;2.88;;
66384;SDS011;53426;55.872;37.462;2022-12-07T02:37:33;3.88;;;2.47;;
66384;SDS011;53426;55.872;37.462;2022-12-07T02:42:46;11.10;;;3.13;;
66384;SDS011;53426;55.872;37.462;2022-12-07T02:45:17;4.97;;;3.65;;
66384;SDS011;53426;55.872;37.462;2022-12-07T02:47:47;2.22;;;2.03;;
66384;SDS011;53426;55.872;37.462;2022-12-07T02:50:17;3.75;;;2.80;;
66384;SDS011;53426;55.872;37.462;2022-12-07T02:52:45;3.80;;;2.92;;
66384;SDS011;53426;55.872;37.462;2022-12-07T02:55:11;3.00;;;2.70;;
66384;SDS011;53426;55.872;37.462;2022-12-07T02:58:26;4.05;;;2.60;;
66384;SDS011;53426;55.872;37.462;2022-12-07T03:00:54;3.13;;;2.45;;
66384;SDS011;53426;55.872;37.462;2022-12-07T03:03:31;3.78;;;1.92;;
66384;SDS011;53426;55.872;37.462;2022-12-07T03:06:09;4.55;;;2.53;;
66384;SDS011;53426;55.872;37.462;2022-12-07T03:11:34;6.65;;;2.47;;
66384;SDS011;53426;55.872;37.462;2022-12-07T03:14:29;4.57;;;2.50;;
66384;SDS011;53426;55.872;37.462;2022-12-07T03:17:00;5.47;;;2.92;;
66384;SDS011;53426;55.872;37.462;2022-12-07T03:19:33;4.63;;;2.92;;
66384;SDS011;53426;55.872;37.462;2022-12-07T03:25:47;3.92;;;2.92;;
66384;SDS011;53426;55.872;37.462;2022-12-07T03:28:16;4.72;;;2.60;;
66384;SDS011;53426;55.872;37.462;2022-12-07T03:37:23;4.90;;;3.03;;
66384;SDS011;53426;55.872;37.462;2022-12-07T03:39:36;3.13;;;2.38;;
66384;SDS011;53426;55.872;37.462;2022-12-07T03:42:07;3.83;;;2.70;;
66384;SDS011;53426;55.872;37.462;2022-12-07T03:44:35;4.13;;;2.78;;
66384;SDS011;53426;55.872;37.462;2022-12-07T03:47:05;5.18;;;3.28;;
66384;SDS011;53426;55.872;37.462;2022-12-07T03:49:54;2.63;;;2.42;;
66384;SDS011;53426;55.872;37.462;2022-12-07T03:55:15;3.63;;;2.78;;
66384;SDS011;53426;55.872;37.462;2022-12-07T03:58:15;4.90;;;3.28;;
66384;SDS011;53426;55.872;37.462;2022-12-07T04:00:44;9.82;;;3.05;;
66384;SDS011;53426;55.872;37.462;2022-12-07T04:03:12;4.38;;;2.67;;
66384;SDS011;53426;55.872;37.462;2022-12-07T04:05:41;3.22;;;2.83;;
66384;SDS011;53426;55.872;37.462;2022-12-07T04:09:35;6.18;;;3.50;;
66384;SDS011;53426;55.872;37.462;2022-12-07T04:12:01;3.72;;;2.60;;
66384;SDS011;53426;55.872;37.462;2022-12-07T04:14:27;3.70;;;3.22;;
66384;SDS011;53426;55.872;37.462;2022-12-07T04:16:56;4.50;;;1.83;;
66384;SDS011;53426;55.872;37.462;2022-12-07T04:19:25;13.57;;;2.63;;
66384;SDS011;53426;55.872;37.462;2022-12-07T04:21:52;5.50;;;3.15;;
66384;SDS011;53426;55.872;37.462;2022-12-07T04:24:19;4.82;;;2.80;;
66384;SDS011;53426;55.872;37.462;2022-12-07T04:26:45;6.40;;;2.88;;
66384;SDS011;53426;55.872;37.462;2022-12-07T04:29:12;3.92;;;3.08;;
66384;SDS011;53426;55.872;37.462;2022-12-07T04:34:54;6.30;;;3.60;;
66384;SDS011;53426;55.872;37.462;2022-12-07T04:37:20;6.50;;;3.70;;
66384;SDS011;53426;55.872;37.462;2022-12-07T04:39:46;12.88;;;3.80;;
66384;SDS011;53426;55.872;37.462;2022-12-07T04:42:12;7.80;;;3.72;;
66384;SDS011;53426;55.872;37.462;2022-12-07T04:44:40;5.60;;;3.25;;
66384;SDS011;53426;55.872;37.462;2022-12-07T04:56:14;7.40;;;3.65;;
66384;SDS011;53426;55.872;37.462;2022-12-07T04:58:52;9.25;;;4.00;;
66384;SDS011;53426;55.872;37.462;2022-12-07T05:01:19;3.15;;;2.85;;
66384;SDS011;53426;55.872;37.462;2022-12-07T05:03:46;8.20;;;3.33;;
66384;SDS011;53426;55.872;37.462;2022-12-07T05:06:12;5.00;;;3.53;;
66384;SDS011;53426;55.872;37.462;2022-12-07T05:08:39;4.20;;;2.88;;
66384;SDS011;53426;55.872;37.462;2022-12-07T05:11:06;4.97;;;3.10;;
66384;SDS011;53426;55.872;37.462;2022-12-07T05:13:35;5.32;;;3.78;;
66384;SDS011;53426;55.872;37.462;2022-12-07T05:16:01;7.03;;;4.07;;
66384;SDS011;53426;55.872;37.462;2022-12-07T05:18:27;12.23;;;3.60;;
66384;SDS011;53426;55.872;37.462;2022-12-07T05:20:53;6.10;;;3.42;;
66384;SDS011;53426;55.872;37.462;2022-12-07T05:23:19;6.78;;;3.63;;
66384;SDS011;53426;55.872;37.462;2022-12-07T05:28:38;11.27;;;3.65;;
66384;SDS011;53426;55.872;37.462;2022-12-07T05:31:04;5.00;;;3.42;;
66384;SDS011;53426;55.872;37.462;2022-12-07T05:36:24;5.60;;;3.60;;
66384;SDS011;53426;55.872;37.462;2022-12-07T05:42:30;8.35;;;4.28;;
66384;SDS011;53426;55.872;37.462;2022-12-07T05:52:42;4.10;;;3.60;;
66384;SDS011;53426;55.872;37.462;2022-12-07T05:55:08;7.43;;;4.28;;
66384;SDS011;53426;55.872;37.462;2022-12-07T05:57:35;5.65;;;3.97;;
66384;SDS011;53426;55.872;37.462;2022-12-07T06:01:11;7.20;;;3.85;;
66384;SDS011;53426;55.872;37.462;2022-12-07T06:03:37;4.35;;;3.63;;
66384;SDS011;53426;55.872;37.462;2022-12-07T06:11:28;6.05;;;3.83;;
66384;SDS011;53426;55.872;37.462;2022-12-07T06:14:15;5.90;;;3.50;;
66384;SDS011;53426;55.872;37.462;2022-12-07T06:17:03;4.00;;;3.38;;
66384;SDS011;53426;55.872;37.462;2022-12-07T06:19:51;8.30;;;4.28;;
66384;SDS011;53426;55.872;37.462;2022-12-07T06:22:21;5.13;;;3.80;;
66384;SDS011;53426;55.872;37.462;2022-12-07T06:28:46;10.95;;;3.13;;
66384;SDS011;53426;55.872;37.462;2022-12-07T06:31:12;5.55;;;3.75;;
66384;SDS011;53426;55.872;37.462;2022-12-07T06:33:38;5.13;;;3.85;;
66384;SDS011;53426;55.872;37.462;2022-12-07T06:36:08;6.32;;;4.13;;
66384;SDS011;53426;55.872;37.462;2022-12-07T06:38:39;13.63;;;4.43;;
66384;SDS011;53426;55.872;37.462;2022-12-07T06:41:07;9.25;;;4.80;;
66384;SDS011;53426;55.872;37.462;2022-12-07T06:43:42;5.85;;;4.18;;
66384;SDS011;53426;55.872;37.462;2022-12-07T06:49:01;14.73;;;5.35;;
66384;SDS011;53426;55.872;37.462;2022-12-07T06:51:28;7.93;;;4.18;;
66384;SDS011;53426;55.872;37.462;2022-12-07T07:03:35;5.53;;;4.75;;
66384;SDS011;53426;55.872;37.462;2022-12-07T07:06:06;9.25;;;5.57;;
66384;SDS011;53426;55.872;37.462;2022-12-07T07:18:05;11.88;;;6.32;;
66384;SDS011;53426;55.872;37.462;2022-12-07T07:20:31;18.67;;;6.50;;
66384;SDS011;53426;55.872;37.462;2022-12-07T07:22:57;28.35;;;18.85;;
66384;SDS011;53426;55.872;37.462;2022-12-07T07:25:23;7.65;;;4.78;;
66384;SDS011;53426;55.872;37.462;2022-12-07T07:27:48;14.25;;;7.38;;
66384;SDS011;53426;55.872;37.462;2022-12-07T07:30:14;17.15;;;6.10;;
66384;SDS011;53426;55.872;37.462;2022-12-07T07:32:40;14.82;;;7.13;;
66384;SDS011;53426;55.872;37.462;2022-12-07T07:35:06;19.80;;;7.50;;
66384;SDS011;53426;55.872;37.462;2022-12-07T07:40:29;8.70;;;5.57;;
66384;SDS011;53426;55.872;37.462;2022-12-07T07:42:55;16.42;;;6.80;;
66384;SDS011;53426;55.872;37.462;2022-12-07T07:45:24;10.40;;;5.50;;
66384;SDS011;53426;55.872;37.462;2022-12-07T07:47:52;9.23;;;5.93;;
66384;SDS011;53426;55.872;37.462;2022-12-07T07:50:18;12.98;;;5.72;;
66384;SDS011;53426;55.872;37.462;2022-12-07T08:05:46;7.15;;;5.78;;
66384;SDS011;53426;55.872;37.462;2022-12-07T08:08:15;5.85;;;4.40;;
66384;SDS011;53426;55.872;37.462;2022-12-07T08:10:41;8.48;;;5.55;;
66384;SDS011;53426;55.872;37.462;2022-12-07T08:13:08;19.17;;;6.72;;
66384;SDS011;53426;55.872;37.462;2022-12-07T08:15:38;17.70;;;6.72;;
66384;SDS011;53426;55.872;37.462;2022-12-07T08:18:18;9.15;;;4.80;;
66384;SDS011;53426;55.872;37.462;2022-12-07T08:20:45;10.43;;;6.05;;
66384;SDS011;53426;55.872;37.462;2022-12-07T08:23:12;18.60;;;4.53;;
66384;SDS011;53426;55.872;37.462;2022-12-07T08:28:36;7.07;;;5.25;;
66384;SDS011;53426;55.872;37.462;2022-12-07T08:40:37;8.40;;;4.88;;
66384;SDS011;53426;55.872;37.462;2022-12-07T08:46:24;21.35;;;6.88;;
66384;SDS011;53426;55.872;37.462;2022-12-07T08:52:18;10.52;;;4.72;;
66384;SDS011;53426;55.872;37.462;2022-12-07T08:54:44;7.07;;;4.97;;
66384;SDS011;53426;55.872;37.462;2022-12-07T08:57:17;8.10;;;5.95;;
66384;SDS011;53426;55.872;37.462;2022-12-07T08:59:43;16.48;;;7.05;;
66384;SDS011;53426;55.872;37.462;2022-12-07T09:02:09;11.70;;;6.47;;
66384;SDS011;53426;55.872;37.462;2022-12-07T09:07:26;11.32;;;6.43;;
66384;SDS011;53426;55.872;37.462;2022-12-07T09:10:03;24.08;;;6.95;;
66384;SDS011;53426;55.872;37.462;2022-12-07T09:12:30;10.90;;;6.28;;
66384;SDS011;53426;55.872;37.462;2022-12-07T09:18:48;10.30;;;5.95;;
66384;SDS011;53426;55.872;37.462;2022-12-07T09:26:36;12.45;;;6.90;;
66384;SDS011;53426;55.872;37.462;2022-12-07T09:31:56;10.20;;;5.45;;
66384;SDS011;53426;55.872;37.462;2022-12-07T09:37:14;8.10;;;6.18;;
66384;SDS011;53426;55.872;37.462;2022-12-07T09:39:40;12.98;;;6.85;;
66384;SDS011;53426;55.872;37.462;2022-12-07T09:42:06;9.70;;;6.35;;
66384;SDS011;53426;55.872;37.462;2022-12-07T09:47:25;7.78;;;5.65;;
66384;SDS011;53426;55.872;37.462;2022-12-07T09:49:52;12.02;;;6.30;;
66384;SDS011;53426;55.872;37.462;2022-12-07T09:55:22;7.93;;;6.18;;
66384;SDS011;53426;55.872;37.462;2022-12-07T09:57:52;10.15;;;6.03;;
66384;SDS011;53426;55.872;37.462;2022-12-07T10:06:06;8.40;;;5.75;;
66384;SDS011;53426;55.872;37.462;2022-12-07T10:08:32;14.73;;;6.57;;
66384;SDS011;53426;55.872;37.462;2022-12-07T10:11:02;7.95;;;5.78;;
66384;SDS011;53426;55.872;37.462;2022-12-07T10:13:37;9.07;;;6.47;;
66384;SDS011;53426;55.872;37.462;2022-12-07T10:22:00;14.70;;;6.72;;
66384;SDS011;53426;55.872;37.462;2022-12-07T10:24:43;16.77;;;7.10;;
66384;SDS011;53426;55.872;37.462;2022-12-07T10:28:42;12.18;;;5.97;;
66384;SDS011;53426;55.872;37.462;2022-12-07T10:31:17;11.35;;;4.78;;
66384;SDS011;53426;55.872;37.462;2022-12-07T10:33:50;10.18;;;6.50;;
66384;SDS011;53426;55.872;37.462;2022-12-07T10:39:04;10.10;;;6.78;;
66384;SDS011;53426;55.872;37.462;2022-12-07T10:41:57;13.32;;;6.80;;
66384;SDS011;53426;55.872;37.462;2022-12-07T10:44:26;10.45;;;6.45;;
66384;SDS011;53426;55.872;37.462;2022-12-07T10:50:00;10.38;;;6.85;;
66384;SDS011;53426;55.872;37.462;2022-12-07T11:00:37;12.18;;;6.30;;
66384;SDS011;53426;55.872;37.462;2022-12-07T11:18:17;8.77;;;5.05;;
66384;SDS011;53426;55.872;37.462;2022-12-07T11:26:07;6.00;;;4.45;;
66384;SDS011;53426;55.872;37.462;2022-12-07T11:49:54;5.05;;;3.70;;
66384;SDS011;53426;55.872;37.462;2022-12-07T11:51:57;10.95;;;6.45;;
66384;SDS011;53426;55.872;37.462;2022-12-07T11:54:35;13.15;;;5.60;;
66384;SDS011;53426;55.872;37.462;2022-12-07T11:57:09;10.55;;;6.05;;
66384;SDS011;53426;55.872;37.462;2022-12-07T12:03:12;7.82;;;4.55;;
66384;SDS011;53426;55.872;37.462;2022-12-07T12:05:41;10.13;;;6.03;;
66384;SDS011;53426;55.872;37.462;2022-12-07T12:08:21;7.15;;;4.68;;
66384;SDS011;53426;55.872;37.462;2022-12-07T12:11:00;10.73;;;6.45;;
66384;SDS011;53426;55.872;37.462;2022-12-07T12:16:30;15.30;;;5.60;;
66384;SDS011;53426;55.872;37.462;2022-12-07T12:19:03;13.18;;;4.45;;
66384;SDS011;53426;55.872;37.462;2022-12-07T12:21:48;8.45;;;5.05;;
66384;SDS011;53426;55.872;37.462;2022-12-07T12:24:19;10.10;;;5.75;;
66384;SDS011;53426;55.872;37.462;2022-12-07T12:26:51;12.55;;;6.55;;
66384;SDS011;53426;55.872;37.462;2022-12-07T12:29:30;13.05;;;5.80;;
66384;SDS011;53426;55.872;37.462;2022-12-07T12:32:22;12.88;;;6.63;;
66384;SDS011;53426;55.872;37.462;2022-12-07T12:35:01;12.00;;;6.45;;
66384;SDS011;53426;55.872;37.462;2022-12-07T12:37:46;10.38;;;6.20;;
66384;SDS011;53426;55.872;37.462;2022-12-07T12:42:49;13.48;;;6.50;;
66384;SDS011;53426;55.872;37.462;2022-12-07T12:45:28;7.90;;;5.32;;
66384;SDS011;53426;55.872;37.462;2022-12-07T12:47:56;11.90;;;6.70;;
66384;SDS011;53426;55.872;37.462;2022-12-07T12:50:34;9.95;;;5.65;;
66384;SDS011;53426;55.872;37.462;2022-12-07T12:55:54;7.90;;;4.45;;
66384;SDS011;53426;55.872;37.462;2022-12-07T12:58:42;10.95;;;6.15;;
66384;SDS011;53426;55.872;37.462;2022-12-07T13:03:53;9.90;;;6.38;;
66384;SDS011;53426;55.872;37.462;2022-12-07T13:08:50;10.05;;;6.38;;
66384;SDS011;53426;55.872;37.462;2022-12-07T13:11:36;9.27;;;4.60;;
66384;SDS011;53426;55.872;37.462;2022-12-07T13:17:05;10.85;;;4.53;;
66384;SDS011;53426;55.872;37.462;2022-12-07T13:31:35;14.45;;;7.80;;
66384;SDS011;53426;55.872;37.462;2022-12-07T13:41:19;12.32;;;4.57;;
66384;SDS011;53426;55.872;37.462;2022-12-07T13:46:42;9.02;;;6.05;;
66384;SDS011;53426;55.872;37.462;2022-12-07T13:55:45;6.80;;;4.80;;
66384;SDS011;53426;55.872;37.462;2022-12-07T13:58:15;7.28;;;5.00;;
66384;SDS011;53426;55.872;37.462;2022-12-07T14:00:42;11.55;;;6.38;;
66384;SDS011;53426;55.872;37.462;2022-12-07T14:27:56;12.68;;;6.85;;
66384;SDS011;53426;55.872;37.462;2022-12-07T14:30:26;16.00;;;7.93;;
66384;SDS011;53426;55.872;37.462;2022-12-07T14:35:48;13.40;;;6.60;;
66384;SDS011;53426;55.872;37.462;2022-12-07T14:38:14;7.80;;;4.50;;
66384;SDS011;53426;55.872;37.462;2022-12-07T14:40:40;8.45;;;5.68;;
66384;SDS011;53426;55.872;37.462;2022-12-07T14:43:09;10.20;;;6.25;;
66384;SDS011;53426;55.872;37.462;2022-12-07T14:45:37;8.25;;;4.68;;
66384;SDS011;53426;55.872;37.462;2022-12-07T14:48:05;3.90;;;3.50;;
66384;SDS011;53426;55.872;37.462;2022-12-07T14:50:33;17.63;;;6.30;;
66384;SDS011;53426;55.872;37.462;2022-12-07T14:53:13;12.57;;;7.15;;
66384;SDS011;53426;55.872;37.462;2022-12-07T14:55:41;9.77;;;5.97;;
66384;SDS011;53426;55.872;37.462;2022-12-07T14:58:14;10.85;;;6.55;;
66384;SDS011;53426;55.872;37.462;2022-12-07T15:00:41;11.00;;;5.53;;
66384;SDS011;53426;55.872;37.462;2022-12-07T15:03:07;5.93;;;4.35;;
66384;SDS011;53426;55.872;37.462;2022-12-07T15:05:32;10.82;;;5.90;;
66384;SDS011;53426;55.872;37.462;2022-12-07T15:07:59;11.25;;;6.68;;
66384;SDS011;53426;55.872;37.462;2022-12-07T15:10:27;14.95;;;7.50;;
66384;SDS011;53426;55.872;37.462;2022-12-07T15:13:13;14.65;;;7.22;;
66384;SDS011;53426;55.872;37.462;2022-12-07T15:22:03;5.88;;;4.45;;
66384;SDS011;53426;55.872;37.462;2022-12-07T15:24:32;9.93;;;6.18;;
66384;SDS011;53426;55.872;37.462;2022-12-07T15:29:43;19.40;;;8.20;;
66384;SDS011;53426;55.872;37.462;2022-12-07T15:32:08;6.28;;;4.57;;
66384;SDS011;53426;55.872;37.462;2022-12-07T15:34:34;16.52;;;6.75;;
66384;SDS011;53426;55.872;37.462;2022-12-07T15:37:09;6.63;;;4.25;;
66384;SDS011;53426;55.872;37.462;2022-12-07T15:40:14;15.07;;;6.82;;
66384;SDS011;53426;55.872;37.462;2022-12-07T15:51:35;8.93;;;5.30;;
66384;SDS011;53426;55.872;37.462;2022-12-07T15:54:01;13.68;;;6.63;;
66384;SDS011;53426;55.872;37.462;2022-12-07T15:56:28;7.38;;;4.97;;
66384;SDS011;53426;55.872;37.462;2022-12-07T15:58:53;9.90;;;6.53;;
66384;SDS011;53426;55.872;37.462;2022-12-07T16:08:03;11.90;;;5.53;;
66384;SDS011;53426;55.872;37.462;2022-12-07T16:10:29;13.68;;;5.72;;
66384;SDS011;53426;55.872;37.462;2022-12-07T16:12:54;8.38;;;6.07;;
66384;SDS011;53426;55.872;37.462;2022-12-07T16:15:23;12.18;;;7.03;;
66384;SDS011;53426;55.872;37.462;2022-12-07T16:18:25;14.75;;;6.10;;
66384;SDS011;53426;55.872;37.462;2022-12-07T16:24:35;11.20;;;6.40;;
66384;SDS011;53426;55.872;37.462;2022-12-07T16:27:51;14.25;;;7.78;;
66384;SDS011;53426;55.872;37.462;2022-12-07T16:31:18;10.82;;;5.22;;
66384;SDS011;53426;55.872;37.462;2022-12-07T16:36:35;11.48;;;6.80;;
66384;SDS011;53426;55.872;37.462;2022-12-07T16:39:02;10.25;;;5.97;;
66384;SDS011;53426;55.872;37.462;2022-12-07T16:41:28;11.60;;;6.40;;
66384;SDS011;53426;55.872;37.462;2022-12-07T17:00:22;8.77;;;5.70;;
66384;SDS011;53426;55.872;37.462;2022-12-07T17:02:57;11.27;;;6.72;;
66384;SDS011;53426;55.872;37.462;2022-12-07T17:05:23;10.68;;;7.07;;
66384;SDS011;53426;55.872;37.462;2022-12-07T17:07:53;13.38;;;7.45;;
66384;SDS011;53426;55.872;37.462;2022-12-07T17:13:24;14.90;;;7.15;;
66384;SDS011;53426;55.872;37.462;2022-12-07T17:23:34;16.98;;;7.43;;
66384;SDS011;53426;55.872;37.462;2022-12-07T17:26:07;11.93;;;6.97;;
66384;SDS011;53426;55.872;37.462;2022-12-07T17:28:37;12.45;;;6.78;;
66384;SDS011;53426;55.872;37.462;2022-12-07T17:31:11;11.32;;;6.75;;
66384;SDS011;53426;55.872;37.462;2022-12-07T17:33:39;15.57;;;7.15;;
66384;SDS011;53426;55.872;37.462;2022-12-07T17:36:14;12.60;;;6.68;;
66384;SDS011;53426;55.872;37.462;2022-12-07T17:38:51;13.13;;;6.22;;
66384;SDS011;53426;55.872;37.462;2022-12-07T17:41:22;8.80;;;5.38;;
66384;SDS011;53426;55.872;37.462;2022-12-07T17:44:10;11.23;;;6.13;;
66384;SDS011;53426;55.872;37.462;2022-12-07T17:46:45;9.40;;;6.13;;
66384;SDS011;53426;55.872;37.462;2022-12-07T17:49:12;7.00;;;5.03;;
66384;SDS011;53426;55.872;37.462;2022-12-07T17:51:41;12.52;;;7.10;;
66384;SDS011;53426;55.872;37.462;2022-12-07T17:54:33;9.25;;;4.65;;
66384;SDS011;53426;55.872;37.462;2022-12-07T17:57:00;6.07;;;4.47;;
66384;SDS011;53426;55.872;37.462;2022-12-07T17:59:27;10.23;;;5.53;;
66384;SDS011;53426;55.872;37.462;2022-12-07T18:05:07;12.63;;;6.82;;
66384;SDS011;53426;55.872;37.462;2022-12-07T18:07:33;10.73;;;6.60;;
66384;SDS011;53426;55.872;37.462;2022-12-07T18:10:02;11.70;;;6.50;;
66384;SDS011;53426;55.872;37.462;2022-12-07T18:15:56;9.45;;;5.28;;
66384;SDS011;53426;55.872;37.462;2022-12-07T18:18:28;7.03;;;4.97;;
66384;SDS011;53426;55.872;37.462;2022-12-07T18:20:54;13.80;;;6.47;;
66384;SDS011;53426;55.872;37.462;2022-12-07T18:23:20;10.25;;;6.72;;
66384;SDS011;53426;55.872;37.462;2022-12-07T18:31:47;11.13;;;5.03;;
66384;SDS011;53426;55.872;37.462;2022-12-07T18:34:14;8.68;;;5.78;;
66384;SDS011;53426;55.872;37.462;2022-12-07T18:36:44;18.45;;;7.40;;
66384;SDS011;53426;55.872;37.462;2022-12-07T18:51:00;8.70;;;4.35;;
66384;SDS011;53426;55.872;37.462;2022-12-07T18:53:32;15.77;;;7.22;;
66384;SDS011;53426;55.872;37.462;2022-12-07T18:56:03;11.98;;;5.03;;
66384;SDS011;53426;55.872;37.462;2022-12-07T18:58:30;13.05;;;6.70;;
66384;SDS011;53426;55.872;37.462;2022-12-07T19:00:56;9.38;;;4.75;;
66384;SDS011;53426;55.872;37.462;2022-12-07T19:03:24;7.85;;;4.95;;
66384;SDS011;53426;55.872;37.462;2022-12-07T19:09:37;10.95;;;5.50;;
66384;SDS011;53426;55.872;37.462;2022-12-07T19:12:03;6.70;;;5.20;;
66384;SDS011;53426;55.872;37.462;2022-12-07T19:14:35;14.00;;;6.45;;
66384;SDS011;53426;55.872;37.462;2022-12-07T19:17:13;9.30;;;5.85;;
66384;SDS011;53426;55.872;37.462;2022-12-07T19:19:43;8.98;;;4.50;;
66384;SDS011;53426;55.872;37.462;2022-12-07T19:22:11;10.65;;;5.72;;
66384;SDS011;53426;55.872;37.462;2022-12-07T19:24:39;6.13;;;4.18;;
66384;SDS011;53426;55.872;37.462;2022-12-07T19:27:06;11.32;;;5.97;;
66384;SDS011;53426;55.872;37.462;2022-12-07T19:29:35;9.18;;;5.00;;
66384;SDS011;53426;55.872;37.462;2022-12-07T19:32:03;13.15;;;5.30;;
66384;SDS011;53426;55.872;37.462;2022-12-07T19:34:34;9.95;;;6.15;;
66384;SDS011;53426;55.872;37.462;2022-12-07T19:37:00;11.57;;;6.68;;
66384;SDS011;53426;55.872;37.462;2022-12-07T19:39:27;13.70;;;6.30;;
66384;SDS011;53426;55.872;37.462;2022-12-07T19:41:54;11.95;;;6.18;;
66384;SDS011;53426;55.872;37.462;2022-12-07T19:44:21;9.15;;;5.57;;
66384;SDS011;53426;55.872;37.462;2022-12-07T19:46:53;7.00;;;5.00;;
66384;SDS011;53426;55.872;37.462;2022-12-07T19:49:21;5.53;;;3.58;;
66384;SDS011;53426;55.872;37.462;2022-12-07T19:51:51;8.68;;;4.10;;
66384;SDS011;53426;55.872;37.462;2022-12-07T19:54:19;8.75;;;4.90;;
66384;SDS011;53426;55.872;37.462;2022-12-07T19:56:48;7.25;;;5.40;;
66384;SDS011;53426;55.872;37.462;2022-12-07T19:59:15;12.75;;;6.18;;
66384;SDS011;53426;55.872;37.462;2022-12-07T20:01:42;10.10;;;6.05;;
66384;SDS011;53426;55.872;37.462;2022-12-07T20:04:09;10.40;;;5.88;;
66384;SDS011;53426;55.872;37.462;2022-12-07T20:06:47;6.35;;;4.65;;
66384;SDS011;53426;55.872;37.462;2022-12-07T20:09:17;12.25;;;6.57;;
66384;SDS011;53426;55.872;37.462;2022-12-07T20:11:45;6.07;;;4.03;;
66384;SDS011;53426;55.872;37.462;2022-12-07T20:14:30;13.25;;;6.85;;
66384;SDS011;53426;55.872;37.462;2022-12-07T20:16:57;9.10;;;3.97;;
66384;SDS011;53426;55.872;37.462;2022-12-07T20:19:23;9.45;;;5.50;;
66384;SDS011;53426;55.872;37.462;2022-12-07T20:21:49;7.13;;;4.35;;
66384;SDS011;53426;55.872;37.462;2022-12-07T20:24:17;9.27;;;5.82;;
66384;SDS011;53426;55.872;37.462;2022-12-07T20:26:45;6.80;;;5.20;;
66384;SDS011;53426;55.872;37.462;2022-12-07T20:29:15;7.40;;;4.85;;
66384;SDS011;53426;55.872;37.462;2022-12-07T20:31:50;5.72;;;3.88;;
66384;SDS011;53426;55.872;37.462;2022-12-07T20:34:17;11.27;;;6.25;;
66384;SDS011;53426;55.872;37.462;2022-12-07T20:36:43;7.00;;;5.40;;
66384;SDS011;53426;55.872;37.462;2022-12-07T20:39:09;11.10;;;6.60;;
66384;SDS011;53426;55.872;37.462;2022-12-07T20:44:45;6.88;;;5.25;;
66384;SDS011;53426;55.872;37.462;2022-12-07T20:47:11;10.55;;;5.88;;
66384;SDS011;53426;55.872;37.462;2022-12-07T20:49:37;7.68;;;4.88;;
66384;SDS011;53426;55.872;37.462;2022-12-07T20:52:03;11.85;;;5.47;;
66384;SDS011;53426;55.872;37.462;2022-12-07T20:54:29;11.75;;;5.72;;
66384;SDS011;53426;55.872;37.462;2022-12-07T20:56:55;6.07;;;3.63;;
66384;SDS011;53426;55.872;37.462;2022-12-07T20:59:20;5.70;;;4.05;;
66384;SDS011;53426;55.872;37.462;2022-12-07T21:01:46;30.73;;;7.15;;
66384;SDS011;53426;55.872;37.462;2022-12-07T21:04:13;7.93;;;4.85;;
66384;SDS011;53426;55.872;37.462;2022-12-07T21:06:45;11.88;;;5.82;;
66384;SDS011;53426;55.872;37.462;2022-12-07T21:09:12;9.43;;;6.60;;
66384;SDS011;53426;55.872;37.462;2022-12-07T21:11:39;12.40;;;4.85;;
66384;SDS011;53426;55.872;37.462;2022-12-07T21:14:05;9.20;;;5.53;;
66384;SDS011;53426;55.872;37.462;2022-12-07T21:16:32;8.68;;;5.38;;